Startpagina
METAR-TAF:

METAR-TAF

Vliegvelden :

RAF Fairford

Fairford, Engeland

breedte: 51-41N, lengte: 001-47W, hoogte: 87 m

Actueel weer

Dit bericht is 41 minuten geleden gemaakt, om 21:56 UTC
Wind 14 kt uit het zuidwesten
Temperatuur 8°C
Vochtigheid 93%
Druk 1013 hPa
Zicht 10 km of meer
Geheel bewolkt op 1700 ft

METAR: EGVA 192156Z AUTO 22014KT 9999 OVC017 08/07 A2990 RMK AO2 OVC V BKN SLP131 T00830068 $

Tijdstip: 22:37 (22:37 UTC)


TAF: ontbreekt

Waarnemingen en weersverwachtingen van meer dan 4000 vliegvelden (METAR en TAF).

De beschikbare stations zijn de gele en rode punten op de kaart.

Ga met uw muis naar het station om de naam te zien.

Klik dan om waarnemingen en weersverwachtingen te zien.

kaart wijzigen: klik op de groene knoppen met een zwart kruis om in te zoomen, op de groene knop met een streepje om uit te zoomen of op de groene pijlen voor aangrenzende kaarten.


METAR-TAF: